createdAt,value
2023-02-26T00:01:50.065Z,1.00
2023-02-26T00:04:19.636Z,1.40
2023-02-26T00:06:58.294Z,1.13
2023-02-26T00:09:27.430Z,1.10
2023-02-26T00:12:00.116Z,1.30
2023-02-26T00:14:28.279Z,1.07
2023-02-26T00:17:49.115Z,1.20
2023-02-26T00:20:17.699Z,1.20
2023-02-26T00:22:45.669Z,1.37
2023-02-26T00:25:15.173Z,1.07
2023-02-26T00:27:49.730Z,1.33
2023-02-26T00:30:19.749Z,1.17
2023-02-26T00:32:50.300Z,1.70
2023-02-26T00:35:23.065Z,1.30
2023-02-26T00:38:07.573Z,1.33
2023-02-26T00:40:47.295Z,1.20
2023-02-26T00:43:26.700Z,1.30
2023-02-26T00:46:29.077Z,1.10
2023-02-26T00:49:00.920Z,1.20
2023-02-26T00:51:42.829Z,1.30
2023-02-26T00:54:24.727Z,1.53
2023-02-26T00:56:53.572Z,1.27
2023-02-26T00:59:22.304Z,1.40
2023-02-26T01:01:53.032Z,1.30
2023-02-26T01:04:24.188Z,2.10
2023-02-26T01:06:57.126Z,1.90
2023-02-26T01:09:33.371Z,1.70
2023-02-26T01:12:08.494Z,2.50
2023-02-26T01:14:36.496Z,1.70
2023-02-26T01:17:15.317Z,1.57
2023-02-26T01:19:55.826Z,1.30
2023-02-26T01:22:36.211Z,1.23
2023-02-26T01:25:13.721Z,1.63
2023-02-26T01:27:43.256Z,1.40
2023-02-26T01:30:13.427Z,1.20
2023-02-26T01:32:50.663Z,1.20
2023-02-26T01:35:35.782Z,1.13
2023-02-26T01:38:17.479Z,1.20
2023-02-26T01:41:05.849Z,1.07
2023-02-26T01:43:38.688Z,1.53
2023-02-26T01:46:50.574Z,1.40
2023-02-26T01:49:22.365Z,1.17
2023-02-26T01:52:33.118Z,1.70
2023-02-26T01:55:04.650Z,1.10
2023-02-26T01:57:33.832Z,0.87
2023-02-26T02:00:01.011Z,1.40
2023-02-26T02:02:28.076Z,0.80
2023-02-26T02:04:55.518Z,1.30
2023-02-26T02:07:27.501Z,1.40
2023-02-26T02:09:54.425Z,1.40
2023-02-26T02:12:27.100Z,1.33
2023-02-26T02:15:13.734Z,1.53
2023-02-26T02:18:19.420Z,1.40
2023-02-26T02:21:19.113Z,1.43
2023-02-26T02:23:53.638Z,0.93
2023-02-26T02:26:37.987Z,0.80
2023-02-26T02:29:31.689Z,1.20
2023-02-26T02:32:19.152Z,1.00
2023-02-26T02:35:13.118Z,1.63
2023-02-26T02:37:56.603Z,1.30
2023-02-26T02:40:35.748Z,0.90
2023-02-26T02:43:06.754Z,1.67
2023-02-26T02:45:55.571Z,1.40
2023-02-26T02:48:41.591Z,1.30
2023-02-26T02:51:22.671Z,0.87
2023-02-26T02:54:16.461Z,1.70
2023-02-26T02:56:52.190Z,1.27
2023-02-26T02:59:34.835Z,1.40
2023-02-26T03:02:17.301Z,1.40
2023-02-26T03:04:44.650Z,0.77
2023-02-26T03:07:11.610Z,1.40
2023-02-26T03:09:38.569Z,1.80
2023-02-26T03:12:06.071Z,0.97
2023-02-26T03:14:36.244Z,0.87
2023-02-26T03:17:14.995Z,1.17
2023-02-26T03:20:25.411Z,1.17
2023-02-26T03:23:21.393Z,1.10
2023-02-26T03:25:56.768Z,1.00
2023-02-26T03:29:18.541Z,1.40
2023-02-26T03:32:01.163Z,1.20
2023-02-26T03:34:59.581Z,1.10
2023-02-26T03:37:40.225Z,1.20
2023-02-26T03:40:17.332Z,1.57
2023-02-26T03:42:58.623Z,0.80
2023-02-26T03:45:32.200Z,1.13
2023-02-26T03:48:01.687Z,1.17
2023-02-26T03:50:35.472Z,1.20
2023-02-26T03:53:06.654Z,1.23
2023-02-26T03:56:07.404Z,1.40
2023-02-26T03:58:34.871Z,0.60
2023-02-26T04:01:12.058Z,1.13
2023-02-26T04:04:09.748Z,1.10
2023-02-26T04:06:39.829Z,1.07
2023-02-26T04:09:09.372Z,1.07
2023-02-26T04:11:37.377Z,0.90
2023-02-26T04:14:04.238Z,1.00
2023-02-26T04:16:31.361Z,0.70
2023-02-26T04:19:01.357Z,1.13
2023-02-26T04:21:30.773Z,0.80
2023-02-26T04:24:00.122Z,0.90
2023-02-26T04:26:27.296Z,0.80
2023-02-26T04:28:56.554Z,1.00
2023-02-26T04:31:25.821Z,0.70
2023-02-26T04:33:52.813Z,1.00
2023-02-26T04:36:19.738Z,0.90
2023-02-26T04:38:51.278Z,1.00
2023-02-26T04:41:18.525Z,0.83
2023-02-26T04:43:45.440Z,0.80
2023-02-26T04:46:15.366Z,0.90
2023-02-26T04:48:42.589Z,0.97
2023-02-26T04:51:09.594Z,0.60
2023-02-26T04:53:36.527Z,0.70
2023-02-26T04:56:06.548Z,0.90
2023-02-26T04:58:34.258Z,1.10
2023-02-26T05:01:01.202Z,0.80
2023-02-26T05:03:30.256Z,0.80
2023-02-26T05:05:57.405Z,0.83
2023-02-26T05:08:29.065Z,1.00
2023-02-26T05:10:58.104Z,0.73
2023-02-26T05:13:24.977Z,0.97
2023-02-26T05:15:56.788Z,0.80
2023-02-26T05:18:24.542Z,0.70
2023-02-26T05:20:55.936Z,0.70
2023-02-26T05:23:23.341Z,1.10
2023-02-26T05:25:50.501Z,0.70
2023-02-26T05:28:20.705Z,1.30
2023-02-26T05:30:47.822Z,0.83
2023-02-26T05:33:17.322Z,0.93
2023-02-26T05:35:47.220Z,1.20
2023-02-26T05:38:15.277Z,1.00
2023-02-26T05:40:42.614Z,0.90
2023-02-26T05:43:10.302Z,0.73
2023-02-26T05:45:39.654Z,1.77
2023-02-26T05:48:06.645Z,0.80
2023-02-26T05:50:33.608Z,0.90
2023-02-26T05:53:00.978Z,0.70
2023-02-26T05:55:28.095Z,0.87
2023-02-26T05:57:54.991Z,0.80
2023-02-26T06:00:22.009Z,0.80
2023-02-26T06:02:49.002Z,1.10
2023-02-26T06:05:15.985Z,0.90
2023-02-26T06:07:42.970Z,0.67
2023-02-26T06:10:11.868Z,1.53
2023-02-26T06:12:41.408Z,0.80
2023-02-26T06:15:09.829Z,0.90
2023-02-26T06:17:39.600Z,0.80
2023-02-26T06:20:08.482Z,1.20
2023-02-26T06:22:35.483Z,0.97
2023-02-26T06:25:02.706Z,0.90
2023-02-26T06:27:29.612Z,0.80
2023-02-26T06:29:56.534Z,0.83
2023-02-26T06:32:25.494Z,0.70
2023-02-26T06:34:52.416Z,1.17
2023-02-26T06:37:21.603Z,0.90
2023-02-26T06:39:50.965Z,0.93
2023-02-26T06:42:20.441Z,1.03
2023-02-26T06:44:47.393Z,1.23
2023-02-26T06:47:17.469Z,0.90
2023-02-26T06:49:46.493Z,1.00
2023-02-26T06:52:13.658Z,0.90
2023-02-26T06:54:43.057Z,1.43
2023-02-26T06:57:10.008Z,0.93
2023-02-26T06:59:39.427Z,1.13
2023-02-26T07:02:06.634Z,0.90
2023-02-26T07:04:33.592Z,1.00
2023-02-26T07:07:00.420Z,1.10
2023-02-26T07:09:27.427Z,1.27
2023-02-26T07:11:54.458Z,0.93
2023-02-26T07:14:24.502Z,1.50
2023-02-26T07:16:51.506Z,0.67
2023-02-26T07:19:18.989Z,1.03
2023-02-26T07:21:47.204Z,1.43
2023-02-26T07:24:16.318Z,0.80
2023-02-26T07:26:43.215Z,1.00
2023-02-26T07:29:12.499Z,1.23
2023-02-26T07:31:44.215Z,1.13
2023-02-26T07:34:15.586Z,1.47
2023-02-26T07:36:45.537Z,1.00
2023-02-26T07:39:12.590Z,1.30
2023-02-26T07:41:39.598Z,1.03
2023-02-26T07:44:06.510Z,1.50
2023-02-26T07:46:33.865Z,2.03
2023-02-26T07:49:00.938Z,1.07
2023-02-26T07:51:28.097Z,1.40
2023-02-26T07:53:57.326Z,1.50
2023-02-26T07:56:28.016Z,1.20
2023-02-26T07:58:55.177Z,1.43
2023-02-26T08:01:25.133Z,1.27
2023-02-26T08:03:55.202Z,1.40
2023-02-26T08:06:22.284Z,1.30
2023-02-26T08:08:51.555Z,1.47
2023-02-26T08:11:18.464Z,1.43
2023-02-26T08:13:45.555Z,2.00
2023-02-26T08:16:12.774Z,1.20
2023-02-26T08:18:42.420Z,1.33
2023-02-26T08:21:09.466Z,1.40
2023-02-26T08:23:36.435Z,1.30
2023-02-26T08:26:13.480Z,1.33
2023-02-26T08:28:40.626Z,1.30
2023-02-26T08:31:07.908Z,1.10
2023-02-26T08:33:37.407Z,1.30
2023-02-26T08:36:04.846Z,1.37
2023-02-26T08:38:32.627Z,1.40
2023-02-26T08:41:00.086Z,1.30
2023-02-26T08:43:27.581Z,1.33
2023-02-26T08:45:58.366Z,1.30
2023-02-26T08:48:25.446Z,1.40
2023-02-26T08:50:54.845Z,1.53
2023-02-26T08:53:22.065Z,1.47
2023-02-26T08:55:53.734Z,1.43
2023-02-26T08:58:23.740Z,1.70
2023-02-26T09:00:53.497Z,1.33
2023-02-26T09:03:23.321Z,1.40
2023-02-26T09:05:51.885Z,2.07
2023-02-26T09:08:21.504Z,1.50
2023-02-26T09:10:50.956Z,1.47
2023-02-26T09:13:17.920Z,2.03
2023-02-26T09:15:44.922Z,1.60
2023-02-26T09:18:15.610Z,1.90
2023-02-26T09:20:45.096Z,1.63
2023-02-26T09:23:12.959Z,1.33
2023-02-26T09:25:40.008Z,1.47
2023-02-26T09:28:07.088Z,1.70
2023-02-26T09:30:34.276Z,1.30
2023-02-26T09:33:01.237Z,1.30
2023-02-26T09:35:28.438Z,1.80
2023-02-26T09:37:58.005Z,1.30
2023-02-26T09:40:51.204Z,1.30
2023-02-26T09:43:54.297Z,0.90
2023-02-26T09:46:51.783Z,1.40
2023-02-26T09:49:34.531Z,1.40
2023-02-26T09:52:41.397Z,1.60
2023-02-26T09:55:38.817Z,1.37
2023-02-26T09:58:14.675Z,1.10
2023-02-26T10:00:59.912Z,1.20
2023-02-26T10:03:56.940Z,1.00
2023-02-26T10:06:29.120Z,1.20
2023-02-26T10:09:25.986Z,1.10
2023-02-26T10:12:13.440Z,1.00
2023-02-26T10:14:49.310Z,1.13
2023-02-26T10:18:01.833Z,1.00
2023-02-26T10:20:42.503Z,1.47
2023-02-26T10:23:20.889Z,1.03
2023-02-26T10:26:12.142Z,1.10
2023-02-26T10:29:45.117Z,1.43
2023-02-26T10:32:39.248Z,1.13
2023-02-26T10:35:21.912Z,1.10
2023-02-26T10:37:59.152Z,0.90
2023-02-26T10:40:49.751Z,1.10
2023-02-26T10:43:30.044Z,1.03
2023-02-26T10:46:06.133Z,1.00
2023-02-26T10:48:57.301Z,1.20
2023-02-26T10:51:32.238Z,1.00
2023-02-26T10:54:29.976Z,1.03
2023-02-26T10:57:04.098Z,1.17
2023-02-26T10:59:34.196Z,1.13
2023-02-26T11:02:03.623Z,1.30
2023-02-26T11:04:30.909Z,1.43
2023-02-26T11:07:05.146Z,0.90
2023-02-26T11:09:36.866Z,1.03
2023-02-26T11:12:19.131Z,1.13
2023-02-26T11:14:48.664Z,0.90
2023-02-26T11:17:23.835Z,1.00
2023-02-26T11:20:12.905Z,1.27
2023-02-26T11:22:43.522Z,0.80
2023-02-26T11:25:15.108Z,0.90
2023-02-26T11:27:46.090Z,1.00
2023-02-26T11:30:22.134Z,1.00
2023-02-26T11:33:00.511Z,1.13
2023-02-26T11:35:27.984Z,1.10
2023-02-26T11:38:04.900Z,0.90
2023-02-26T11:40:42.064Z,1.10
2023-02-26T11:43:19.243Z,2.00
2023-02-26T11:45:53.418Z,1.20
2023-02-26T11:48:29.284Z,1.00
2023-02-26T11:51:03.248Z,0.80
2023-02-26T11:53:34.974Z,0.60
2023-02-26T11:56:15.407Z,0.70
2023-02-26T11:58:47.295Z,1.10
2023-02-26T12:01:17.179Z,0.90
2023-02-26T12:03:53.379Z,0.77
2023-02-26T12:06:24.800Z,0.70
2023-02-26T12:08:53.907Z,1.00
2023-02-26T12:11:50.446Z,1.47
2023-02-26T12:14:44.544Z,1.37
2023-02-26T12:17:35.429Z,1.60
2023-02-26T12:20:30.220Z,0.87
2023-02-26T12:23:08.356Z,0.67
2023-02-26T12:25:49.988Z,0.80
2023-02-26T12:28:35.088Z,0.70
2023-02-26T12:31:29.771Z,0.97
2023-02-26T12:34:28.576Z,0.80
2023-02-26T12:37:30.517Z,1.20
2023-02-26T12:40:59.155Z,0.73
2023-02-26T12:43:55.670Z,0.77
2023-02-26T12:46:40.831Z,1.60
2023-02-26T12:49:34.842Z,0.80
2023-02-26T12:52:19.120Z,0.83
2023-02-26T12:55:04.744Z,0.60
2023-02-26T12:57:43.499Z,2.17
2023-02-26T13:01:00.612Z,0.70
2023-02-26T13:03:42.582Z,3.27
2023-02-26T13:06:40.263Z,0.90
2023-02-26T13:09:33.323Z,1.77
2023-02-26T13:12:49.207Z,1.03
2023-02-26T13:15:41.870Z,1.70
2023-02-26T13:18:45.035Z,0.90
2023-02-26T13:21:27.437Z,1.33
2023-02-26T13:24:06.244Z,1.30
2023-02-26T13:26:34.742Z,1.10
2023-02-26T13:29:19.119Z,1.07
2023-02-26T13:31:57.979Z,1.30
2023-02-26T13:34:33.730Z,1.17
2023-02-26T13:37:05.402Z,0.80
2023-02-26T13:39:50.457Z,1.40
2023-02-26T13:42:50.705Z,0.87
2023-02-26T13:45:45.528Z,1.00
2023-02-26T13:48:17.603Z,1.60
2023-02-26T13:50:58.969Z,3.70
2023-02-26T13:53:57.216Z,1.40
2023-02-26T13:56:33.228Z,1.20
2023-02-26T13:59:03.229Z,1.33
2023-02-26T14:01:49.336Z,1.17
2023-02-26T14:04:25.970Z,1.50
2023-02-26T14:07:11.040Z,2.00
2023-02-26T14:10:05.245Z,1.63
2023-02-26T14:12:41.096Z,1.57
2023-02-26T14:15:14.090Z,1.10
2023-02-26T14:18:00.527Z,1.30
2023-02-26T14:20:36.155Z,1.43
2023-02-26T14:23:09.990Z,1.50
2023-02-26T14:25:55.057Z,3.43
2023-02-26T14:28:25.109Z,2.40
2023-02-26T14:31:11.173Z,1.80
2023-02-26T14:33:50.985Z,1.60
2023-02-26T14:36:53.985Z,1.43
2023-02-26T14:39:36.954Z,1.97
2023-02-26T14:42:16.190Z,1.17
2023-02-26T14:45:00.956Z,1.10
2023-02-26T14:47:28.034Z,1.27
2023-02-26T14:50:00.442Z,1.30
2023-02-26T14:52:57.370Z,1.57
2023-02-26T14:55:48.326Z,1.20
2023-02-26T14:58:28.063Z,1.73
2023-02-26T15:01:35.909Z,1.20
2023-02-26T15:04:52.120Z,1.20
2023-02-26T15:07:42.663Z,1.33
2023-02-26T15:11:02.721Z,1.00
2023-02-26T15:13:58.243Z,1.23
2023-02-26T15:17:33.605Z,1.53
2023-02-26T15:20:26.903Z,0.93
2023-02-26T15:23:26.061Z,1.20
2023-02-26T15:25:54.746Z,1.00
2023-02-26T15:28:37.979Z,1.00
2023-02-26T15:31:08.047Z,0.77
2023-02-26T15:33:37.984Z,1.57
2023-02-26T15:36:13.877Z,1.30
2023-02-26T15:38:59.170Z,1.10
2023-02-26T15:41:30.541Z,1.17
2023-02-26T15:44:10.636Z,0.97
2023-02-26T15:46:45.126Z,1.50
2023-02-26T15:49:23.587Z,1.70
2023-02-26T15:51:52.768Z,1.40
2023-02-26T15:54:25.847Z,1.40
2023-02-26T15:56:55.759Z,1.10
2023-02-26T15:59:28.445Z,1.07
2023-02-26T16:01:57.869Z,2.97
2023-02-26T16:04:27.000Z,5.20
2023-02-26T16:06:58.241Z,2.97
2023-02-26T16:09:31.380Z,3.00
2023-02-26T16:12:05.019Z,2.30
2023-02-26T16:14:38.297Z,1.33
2023-02-26T16:17:10.777Z,1.37
2023-02-26T16:19:47.564Z,1.23
2023-02-26T16:22:50.200Z,1.33
2023-02-26T16:25:50.554Z,2.20
2023-02-26T16:28:30.000Z,1.37
2023-02-26T16:31:00.461Z,1.50
2023-02-26T16:33:28.109Z,1.40
2023-02-26T16:36:14.421Z,1.60
2023-02-26T16:38:46.134Z,1.40
2023-02-26T16:41:14.384Z,1.80
2023-02-26T16:43:49.937Z,1.60
2023-02-26T16:46:42.559Z,1.80
2023-02-26T16:49:36.995Z,1.97
2023-02-26T16:52:07.856Z,1.73
2023-02-26T16:54:55.448Z,2.23
2023-02-26T16:57:45.533Z,1.60
2023-02-26T17:00:19.975Z,2.00
2023-02-26T17:02:52.546Z,1.20
2023-02-26T17:05:28.746Z,1.53
2023-02-26T17:08:23.593Z,2.30
2023-02-26T17:11:00.372Z,1.80
2023-02-26T17:13:31.577Z,1.60
2023-02-26T17:16:13.115Z,2.33
2023-02-26T17:18:43.372Z,2.10
2023-02-26T17:21:13.314Z,5.30
2023-02-26T17:23:40.493Z,2.70
2023-02-26T17:26:07.532Z,3.97
2023-02-26T17:28:40.776Z,1.90
2023-02-26T17:31:12.575Z,3.13
2023-02-26T17:33:45.599Z,2.17
2023-02-26T17:36:18.674Z,2.83
2023-02-26T17:38:51.646Z,2.73
2023-02-26T17:41:22.571Z,3.00
2023-02-26T17:43:49.794Z,3.90
2023-02-26T17:46:16.733Z,1.23
2023-02-26T17:48:46.031Z,2.40
2023-02-26T17:51:15.993Z,3.00
2023-02-26T17:53:44.846Z,5.03
2023-02-26T17:56:20.720Z,1.93
2023-02-26T17:58:57.135Z,3.60
2023-02-26T18:01:28.546Z,4.30
2023-02-26T18:04:03.720Z,3.80
2023-02-26T18:06:44.106Z,3.80
2023-02-26T18:09:14.136Z,4.87
2023-02-26T18:11:42.058Z,5.30
2023-02-26T18:14:11.148Z,5.00
2023-02-26T18:16:42.278Z,3.90
2023-02-26T18:19:17.017Z,3.10
2023-02-26T18:21:46.584Z,3.10
2023-02-26T18:24:13.658Z,4.07
2023-02-26T18:26:40.840Z,4.03
2023-02-26T18:29:07.839Z,3.60
2023-02-26T18:31:35.829Z,4.77
2023-02-26T18:34:06.410Z,4.97
2023-02-26T18:36:38.095Z,4.80
2023-02-26T18:39:11.328Z,4.77
2023-02-26T18:41:39.676Z,3.60
2023-02-26T18:44:08.812Z,3.13
2023-02-26T18:46:42.324Z,3.60
2023-02-26T18:49:29.499Z,3.80
2023-02-26T18:52:04.701Z,4.10
2023-02-26T18:54:35.616Z,4.37
2023-02-26T18:57:13.312Z,3.70
2023-02-26T18:59:45.689Z,4.03
2023-02-26T19:02:17.537Z,4.10
2023-02-26T19:04:48.286Z,3.80
2023-02-26T19:07:22.348Z,4.30
2023-02-26T19:09:53.416Z,3.10
2023-02-26T19:12:25.853Z,4.27
2023-02-26T19:15:07.867Z,3.00
2023-02-26T19:17:44.328Z,2.70
2023-02-26T19:20:35.653Z,3.80
2023-02-26T19:23:11.462Z,3.07
2023-02-26T19:25:52.985Z,3.50
2023-02-26T19:28:36.156Z,3.80
2023-02-26T19:31:18.437Z,3.70
2023-02-26T19:33:49.216Z,3.70
2023-02-26T19:36:29.203Z,3.80
2023-02-26T19:39:05.845Z,4.07
2023-02-26T19:41:42.939Z,3.47
2023-02-26T19:44:12.539Z,4.70
2023-02-26T19:46:49.713Z,5.30
2023-02-26T19:49:19.407Z,5.13
2023-02-26T19:51:46.890Z,5.20
2023-02-26T19:54:14.665Z,6.37
2023-02-26T19:56:43.115Z,5.93
2023-02-26T19:59:13.189Z,6.00
2023-02-26T20:01:43.989Z,5.37
2023-02-26T20:04:11.121Z,5.67
2023-02-26T20:06:38.189Z,5.03
2023-02-26T20:09:12.135Z,5.80
2023-02-26T20:11:39.715Z,4.83
2023-02-26T20:14:07.479Z,5.97
2023-02-26T20:16:34.627Z,5.10
2023-02-26T20:19:01.829Z,5.13
2023-02-26T20:21:31.293Z,5.80
2023-02-26T20:24:00.638Z,5.70
2023-02-26T20:26:32.845Z,4.50
2023-02-26T20:29:02.278Z,4.70
2023-02-26T20:31:30.760Z,5.77
2023-02-26T20:34:02.221Z,5.57
2023-02-26T20:36:29.421Z,5.13
2023-02-26T20:38:56.282Z,5.50
2023-02-26T20:41:23.170Z,5.43
2023-02-26T20:43:52.339Z,5.20
2023-02-26T20:46:19.340Z,5.00
2023-02-26T20:48:46.399Z,5.40
2023-02-26T20:51:15.937Z,6.10
2023-02-26T20:53:45.854Z,6.67
2023-02-26T20:56:12.748Z,7.50
2023-02-26T20:58:42.276Z,7.87
2023-02-26T21:01:09.375Z,9.23
2023-02-26T21:03:43.998Z,8.93
2023-02-26T21:06:14.023Z,9.90
2023-02-26T21:08:43.062Z,8.90
2023-02-26T21:11:14.617Z,10.00
2023-02-26T21:13:41.560Z,9.20
2023-02-26T21:16:11.150Z,9.80
2023-02-26T21:18:38.294Z,9.90
2023-02-26T21:21:08.346Z,8.43
2023-02-26T21:23:35.225Z,8.90
2023-02-26T21:26:02.230Z,8.50
2023-02-26T21:28:29.056Z,7.83
2023-02-26T21:31:01.112Z,8.20
2023-02-26T21:33:28.203Z,6.97
2023-02-26T21:35:55.138Z,7.00
2023-02-26T21:38:22.226Z,7.03
2023-02-26T21:40:49.670Z,8.50
2023-02-26T21:43:16.766Z,8.50
2023-02-26T21:45:44.308Z,7.10
2023-02-26T21:48:11.343Z,7.60
2023-02-26T21:50:41.378Z,6.33
2023-02-26T21:53:08.388Z,6.63
2023-02-26T21:55:39.796Z,6.83
2023-02-26T21:58:09.162Z,6.10
2023-02-26T22:00:39.464Z,6.73
2023-02-26T22:03:08.776Z,6.20
2023-02-26T22:05:35.668Z,7.33
2023-02-26T22:08:02.630Z,6.97
2023-02-26T22:10:33.158Z,6.60
2023-02-26T22:13:02.416Z,6.77
2023-02-26T22:15:29.366Z,9.10
2023-02-26T22:17:56.392Z,6.37
2023-02-26T22:20:28.524Z,6.80
2023-02-26T22:23:00.856Z,7.33
2023-02-26T22:25:31.111Z,6.73
2023-02-26T22:28:00.256Z,7.33
2023-02-26T22:30:27.435Z,6.60
2023-02-26T22:32:57.585Z,6.70
2023-02-26T22:35:27.010Z,6.73
2023-02-26T22:37:53.908Z,6.50
2023-02-26T22:40:21.102Z,6.87
2023-02-26T22:42:48.097Z,6.90
2023-02-26T22:45:17.430Z,8.07
2023-02-26T22:47:48.272Z,7.60
2023-02-26T22:50:19.169Z,8.43
2023-02-26T22:52:48.475Z,7.40
2023-02-26T22:55:15.635Z,7.80
2023-02-26T22:57:44.726Z,7.80
2023-02-26T23:00:18.508Z,7.40
2023-02-26T23:02:47.853Z,7.97
2023-02-26T23:05:15.261Z,7.37
2023-02-26T23:07:43.899Z,7.43
2023-02-26T23:10:15.558Z,8.30
2023-02-26T23:12:43.495Z,8.47
2023-02-26T23:15:11.911Z,9.03
2023-02-26T23:17:39.532Z,7.70
2023-02-26T23:20:13.662Z,7.83
2023-02-26T23:22:43.963Z,7.90
2023-02-26T23:25:13.495Z,6.20
2023-02-26T23:27:42.575Z,5.97
2023-02-26T23:30:13.303Z,5.50
2023-02-26T23:32:40.464Z,5.20
2023-02-26T23:35:07.989Z,6.07
2023-02-26T23:37:34.970Z,5.60
2023-02-26T23:40:05.621Z,6.30
2023-02-26T23:42:32.543Z,5.33
2023-02-26T23:44:59.578Z,6.77
2023-02-26T23:47:27.037Z,6.50
2023-02-26T23:49:58.703Z,6.30
2023-02-26T23:52:27.831Z,7.10
2023-02-26T23:54:54.754Z,6.43
2023-02-26T23:57:23.776Z,5.50
2023-02-26T23:59:51.191Z,6.40
